Time,TemperatureF,DewpointF,PressureIn,WindDirection,WindDirectionDegrees,WindSpeedMPH,WindSpeedGustMPH,Humidity,HourlyPrecipIn,Conditions,Clouds,dailyrainin,SoftwareType,DateUTC
2013-02-08 00:02:00,53.0,39.0,29.81,South,188,5.0,11.0,58,0.00,,,0.00,,2013-02-08 05:02:00,
2013-02-08 00:12:00,53.0,39.0,29.81,South,188,5.0,11.0,58,0.00,,,0.00,,2013-02-08 05:12:00,
2013-02-08 00:22:00,53.0,39.0,29.80,SW,230,6.0,11.0,58,0.00,,,0.00,,2013-02-08 05:22:00,
2013-02-08 00:32:00,53.0,39.0,29.80,SE,145,5.0,12.0,60,0.00,,,0.00,,2013-02-08 05:32:00,
2013-02-08 00:42:00,53.0,39.0,29.80,SE,145,5.0,12.0,60,0.00,,,0.00,,2013-02-08 05:42:00,
2013-02-08 00:52:00,53.0,39.0,29.80,SE,145,5.0,12.0,60,0.00,,,0.00,,2013-02-08 05:52:00,
2013-02-08 01:01:00,53.0,39.0,29.80,SE,145,5.0,12.0,60,0.00,,,0.00,,2013-02-08 06:01:00,
2013-02-08 01:11:00,53.0,39.0,29.80,SE,145,5.0,12.0,60,0.00,,,0.00,,2013-02-08 06:11:00,
2013-02-08 01:22:00,52.0,41.0,29.81,South,176,5.0,17.0,65,0.00,,,0.00,,2013-02-08 06:22:00,
2013-02-08 01:32:00,51.0,40.0,29.81,SSE,167,5.0,14.0,67,0.00,,,0.00,,2013-02-08 06:32:00,
2013-02-08 01:42:00,51.0,40.0,29.81,SSE,167,5.0,14.0,67,0.00,,,0.00,,2013-02-08 06:42:00,
2013-02-08 01:52:00,51.0,42.0,29.81,WSW,245,4.0,15.0,71,0.00,,,0.00,,2013-02-08 06:52:00,
2013-02-08 02:01:00,50.0,42.0,29.80,West,265,6.0,10.0,75,0.00,,,0.00,,2013-02-08 07:01:00,
2013-02-08 02:11:00,49.0,43.0,29.80,SW,222,3.0,10.0,81,0.00,,,0.00,,2013-02-08 07:11:00,
2013-02-08 02:21:00,49.0,43.0,29.80,SW,222,3.0,10.0,81,0.00,,,0.00,,2013-02-08 07:21:00,
2013-02-08 02:32:00,49.0,43.0,29.80,SW,222,3.0,10.0,81,0.00,,,0.00,,2013-02-08 07:32:00,
2013-02-08 02:42:00,49.0,43.0,29.80,SW,222,3.0,10.0,81,0.00,,,0.00,,2013-02-08 07:42:00,
2013-02-08 02:52:00,49.0,43.0,29.80,SW,222,3.0,10.0,81,0.00,,,0.00,,2013-02-08 07:52:00,
2013-02-08 03:01:00,49.0,43.0,29.80,SW,222,3.0,10.0,81,0.00,,,0.00,,2013-02-08 08:01:00,
2013-02-08 03:11:00,47.0,45.0,29.81,West,274,2.0,8.0,94,0.04,,,0.04,,2013-02-08 08:11:00,
2013-02-08 03:22:00,47.0,45.0,29.81,West,274,2.0,8.0,94,0.04,,,0.04,,2013-02-08 08:22:00,
2013-02-08 03:32:00,46.0,45.0,29.82,West,276,4.0,6.0,95,0.03,,,0.05,,2013-02-08 08:32:00,
2013-02-08 03:42:00,46.0,45.0,29.82,West,276,4.0,6.0,95,0.03,,,0.05,,2013-02-08 08:42:00,
2013-02-08 03:52:00,45.0,44.0,29.82,WNW,299,4.0,11.0,95,0.02,,,0.05,,2013-02-08 08:52:00,
2013-02-08 04:03:00,45.0,44.0,29.82,WNW,299,4.0,11.0,95,0.02,,,0.05,,2013-02-08 09:03:00,
2013-02-08 04:11:00,45.0,44.0,29.82,WNW,299,4.0,11.0,95,0.02,,,0.05,,2013-02-08 09:11:00,
2013-02-08 04:21:00,43.0,42.0,29.83,WNW,296,9.0,16.0,95,0.02,,,0.06,,2013-02-08 09:21:00,
2013-02-08 04:32:00,42.0,41.0,29.84,NW,315,4.0,14.0,95,0.02,,,0.07,,2013-02-08 09:32:00,
2013-02-08 04:42:00,42.0,41.0,29.84,NW,315,4.0,14.0,95,0.02,,,0.07,,2013-02-08 09:42:00,
2013-02-08 04:52:00,40.0,39.0,29.85,NW,310,4.0,16.0,95,0.03,,,0.08,,2013-02-08 09:52:00,
2013-02-08 05:01:00,40.0,39.0,29.85,NNW,331,4.0,14.0,95,0.03,,,0.09,,2013-02-08 10:01:00,
2013-02-08 05:12:00,40.0,39.0,29.85,NNW,331,4.0,14.0,95,0.03,,,0.09,,2013-02-08 10:12:00,
2013-02-08 05:22:00,40.0,39.0,29.85,NNW,331,4.0,14.0,95,0.03,,,0.09,,2013-02-08 10:22:00,
2013-02-08 05:32:00,40.0,39.0,29.85,NNW,331,4.0,14.0,95,0.03,,,0.09,,2013-02-08 10:32:00,
2013-02-08 05:42:00,40.0,39.0,29.85,NNW,331,4.0,14.0,95,0.03,,,0.09,,2013-02-08 10:42:00,
2013-02-08 05:52:00,37.0,36.0,29.89,NNW,330,5.0,12.0,95,0.02,,,0.10,,2013-02-08 10:52:00,
2013-02-08 06:02:00,37.0,35.0,29.89,WNW,291,4.0,12.0,94,0.01,,,0.10,,2013-02-08 11:02:00,
2013-02-08 06:11:00,37.0,35.0,29.89,WNW,291,4.0,12.0,94,0.01,,,0.10,,2013-02-08 11:11:00,
2013-02-08 06:21:00,36.0,34.0,29.90,NNW,347,4.0,12.0,94,0.00,,,0.10,,2013-02-08 11:21:00,
2013-02-08 06:32:00,36.0,34.0,29.91,WNW,293,3.0,12.0,94,0.00,,,0.10,,2013-02-08 11:32:00,
2013-02-08 06:42:00,36.0,34.0,29.91,WNW,293,3.0,12.0,94,0.00,,,0.10,,2013-02-08 11:42:00,
2013-02-08 06:52:00,35.0,33.0,29.92,WNW,299,7.0,14.0,93,0.00,,,0.10,,2013-02-08 11:52:00,
2013-02-08 07:02:00,34.0,32.0,29.93,NNW,341,6.0,20.0,92,0.01,,,0.11,,2013-02-08 12:02:00,
2013-02-08 07:11:00,34.0,32.0,29.93,NNW,341,6.0,20.0,92,0.01,,,0.11,,2013-02-08 12:11:00,
2013-02-08 07:22:00,34.0,32.0,29.93,NNW,341,6.0,20.0,92,0.01,,,0.11,,2013-02-08 12:22:00,
2013-02-08 07:33:00,34.0,32.0,29.93,NNW,341,6.0,20.0,92,0.01,,,0.11,,2013-02-08 12:33:00,
2013-02-08 07:42:00,34.0,32.0,29.93,NNW,341,6.0,20.0,92,0.01,,,0.11,,2013-02-08 12:42:00,
2013-02-08 07:52:00,34.0,31.0,29.95,WNW,285,5.0,16.0,90,0.01,,,0.11,,2013-02-08 12:52:00,
2013-02-08 08:02:00,34.0,31.0,29.96,NNW,342,6.0,11.0,90,0.00,,,0.11,,2013-02-08 13:02:00,
2013-02-08 08:12:00,34.0,31.0,29.96,NNW,342,6.0,11.0,90,0.00,,,0.11,,2013-02-08 13:12:00,
2013-02-08 08:22:00,34.0,31.0,29.96,NNW,342,6.0,11.0,90,0.00,,,0.11,,2013-02-08 13:22:00,
2013-02-08 08:32:00,34.0,31.0,29.96,NNW,342,6.0,11.0,90,0.00,,,0.11,,2013-02-08 13:32:00,
2013-02-08 08:42:00,34.0,31.0,29.96,NNW,342,6.0,11.0,90,0.00,,,0.11,,2013-02-08 13:42:00,
2013-02-08 08:52:00,34.0,31.0,30.00,NW,304,6.0,13.0,90,0.00,,,0.11,,2013-02-08 13:52:00,
2013-02-08 09:02:00,34.0,31.0,30.01,North,354,3.0,9.0,90,0.00,,,0.11,,2013-02-08 14:02:00,
2013-02-08 09:11:00,34.0,31.0,30.01,North,354,3.0,9.0,90,0.00,,,0.11,,2013-02-08 14:11:00,
2013-02-08 09:22:00,34.0,31.0,30.01,North,354,3.0,9.0,90,0.00,,,0.11,,2013-02-08 14:22:00,
2013-02-08 09:32:00,34.0,31.0,30.01,North,354,3.0,9.0,90,0.00,,,0.11,,2013-02-08 14:32:00,
2013-02-08 09:42:00,34.0,31.0,30.01,North,354,3.0,9.0,90,0.00,,,0.11,,2013-02-08 14:42:00,
2013-02-08 10:02:00,34.0,31.0,30.04,NW,312,3.0,16.0,90,0.00,,,0.11,,2013-02-08 15:02:00,
2013-02-08 10:12:00,34.0,31.0,30.04,NW,312,3.0,16.0,90,0.00,,,0.11,,2013-02-08 15:12:00,
2013-02-08 10:22:00,34.0,31.0,30.04,NW,312,3.0,16.0,90,0.00,,,0.11,,2013-02-08 15:22:00,
2013-02-08 10:32:00,33.0,30.0,30.06,NW,326,3.0,16.0,90,0.00,,,0.11,,2013-02-08 15:32:00,
2013-02-08 10:42:00,33.0,30.0,30.06,NW,326,3.0,16.0,90,0.00,,,0.11,,2013-02-08 15:42:00,
2013-02-08 10:52:00,33.0,30.0,30.06,NW,319,8.0,20.0,90,0.00,,,0.11,,2013-02-08 15:52:00,
2013-02-08 11:02:00,33.0,30.0,30.07,North,357,5.0,15.0,89,0.00,,,0.11,,2013-02-08 16:02:00,
2013-02-08 11:11:00,33.0,30.0,30.07,North,357,5.0,15.0,89,0.00,,,0.11,,2013-02-08 16:11:00,
2013-02-08 11:22:00,33.0,30.0,30.09,NNW,338,6.0,17.0,88,0.00,,,0.11,,2013-02-08 16:22:00,
2013-02-08 11:32:00,33.0,30.0,30.09,NNW,327,6.0,15.0,89,0.00,,,0.11,,2013-02-08 16:32:00,
2013-02-08 11:42:00,33.0,30.0,30.09,NNW,327,6.0,15.0,89,0.00,,,0.11,,2013-02-08 16:42:00,
2013-02-08 11:52:00,33.0,30.0,30.10,NW,319,3.0,17.0,89,0.00,,,0.11,,2013-02-08 16:52:00,
2013-02-08 12:03:00,34.0,31.0,30.10,WNW,298,5.0,14.0,87,0.00,,,0.11,,2013-02-08 17:03:00,
2013-02-08 12:12:00,34.0,31.0,30.10,WNW,298,5.0,14.0,87,0.00,,,0.11,,2013-02-08 17:12:00,
2013-02-08 12:23:00,34.0,31.0,30.10,WNW,298,5.0,14.0,87,0.00,,,0.11,,2013-02-08 17:23:00,
2013-02-08 12:32:00,34.0,30.0,30.10,NW,314,5.0,16.0,85,0.00,,,0.11,,2013-02-08 17:32:00,
2013-02-08 12:42:00,34.0,30.0,30.10,NW,314,5.0,16.0,85,0.00,,,0.11,,2013-02-08 17:42:00,
2013-02-08 12:53:00,34.0,30.0,30.10,NNW,327,3.0,8.0,85,0.00,,,0.11,,2013-02-08 17:53:00,
2013-02-08 13:02:00,34.0,31.0,30.10,NNW,331,6.0,15.0,87,0.00,,,0.11,,2013-02-08 18:02:00,
2013-02-08 13:12:00,34.0,31.0,30.10,NNW,331,6.0,15.0,87,0.00,,,0.11,,2013-02-08 18:12:00,
2013-02-08 13:24:00,33.0,30.0,30.10,West,281,4.0,15.0,87,0.00,,,0.11,,2013-02-08 18:24:00,
2013-02-08 13:35:00,34.0,30.0,30.10,NNW,342,4.0,9.0,84,0.00,,,0.11,,2013-02-08 18:35:00,
2013-02-08 13:43:00,34.0,30.0,30.10,NNW,342,4.0,9.0,84,0.00,,,0.11,,2013-02-08 18:43:00,
2013-02-08 13:53:00,34.0,29.0,30.11,NW,312,4.0,13.0,82,0.00,,,0.11,,2013-02-08 18:53:00,
2013-02-08 14:02:00,34.0,28.0,30.11,NW,323,5.0,10.0,80,0.00,,,0.11,,2013-02-08 19:02:00,
2013-02-08 14:11:00,34.0,28.0,30.11,NW,323,5.0,10.0,80,0.00,,,0.11,,2013-02-08 19:11:00,
2013-02-08 14:22:00,34.0,28.0,30.11,NNW,343,4.0,9.0,80,0.00,,,0.11,,2013-02-08 19:22:00,
2013-02-08 14:32:00,34.0,28.0,30.11,NW,320,3.0,9.0,79,0.00,,,0.11,,2013-02-08 19:32:00,
2013-02-08 14:42:00,34.0,28.0,30.11,NW,320,3.0,9.0,79,0.00,,,0.11,,2013-02-08 19:42:00,
2013-02-08 14:52:00,34.0,28.0,30.11,NW,320,3.0,9.0,79,0.00,,,0.11,,2013-02-08 19:52:00,
2013-02-08 15:02:00,34.0,28.0,30.12,NNW,335,3.0,8.0,79,0.00,,,0.11,,2013-02-08 20:02:00,
2013-02-08 15:12:00,34.0,28.0,30.12,NNW,335,3.0,8.0,79,0.00,,,0.11,,2013-02-08 20:12:00,
2013-02-08 15:22:00,34.0,28.0,30.12,NNW,335,3.0,8.0,79,0.00,,,0.11,,2013-02-08 20:22:00,
2013-02-08 15:32:00,34.0,28.0,30.13,NW,317,3.0,8.0,78,0.00,,,0.11,,2013-02-08 20:32:00,
2013-02-08 15:42:00,34.0,28.0,30.13,NW,317,3.0,8.0,78,0.00,,,0.11,,2013-02-08 20:42:00,
2013-02-08 15:52:00,34.0,28.0,30.14,West,261,3.0,6.0,79,0.00,,,0.11,,2013-02-08 20:52:00,
2013-02-08 16:02:00,34.0,28.0,30.14,WNW,293,4.0,11.0,79,0.00,,,0.11,,2013-02-08 21:02:00,
2013-02-08 16:11:00,34.0,28.0,30.14,WNW,293,4.0,11.0,79,0.00,,,0.11,,2013-02-08 21:11:00,
2013-02-08 16:22:00,34.0,28.0,30.15,NW,319,4.0,13.0,78,0.00,,,0.11,,2013-02-08 21:22:00,
2013-02-08 16:32:00,34.0,28.0,30.16,WNW,293,2.0,8.0,78,0.00,,,0.11,,2013-02-08 21:32:00,
2013-02-08 16:42:00,34.0,28.0,30.16,WNW,293,2.0,8.0,78,0.00,,,0.11,,2013-02-08 21:42:00,
2013-02-08 16:52:00,34.0,28.0,30.16,NNW,333,2.0,8.0,79,0.00,,,0.11,,2013-02-08 21:52:00,
2013-02-08 17:02:00,34.0,28.0,30.17,NW,326,2.0,5.0,79,0.00,,,0.11,,2013-02-08 22:02:00,
2013-02-08 17:11:00,34.0,28.0,30.17,NW,326,2.0,5.0,79,0.00,,,0.11,,2013-02-08 22:11:00,
2013-02-08 17:22:00,34.0,28.0,30.17,NW,326,2.0,5.0,79,0.00,,,0.11,,2013-02-08 22:22:00,
2013-02-08 17:32:00,34.0,28.0,30.18,NNW,329,4.0,8.0,79,0.00,,,0.11,,2013-02-08 22:32:00,
2013-02-08 17:42:00,34.0,28.0,30.18,NNW,329,4.0,8.0,79,0.00,,,0.11,,2013-02-08 22:42:00,
2013-02-08 17:52:00,34.0,28.0,30.18,NNW,329,4.0,8.0,79,0.00,,,0.11,,2013-02-08 22:52:00,
2013-02-08 18:02:00,34.0,28.0,30.18,NNW,329,4.0,8.0,79,0.00,,,0.11,,2013-02-08 23:02:00,
2013-02-08 18:11:00,34.0,28.0,30.18,NNW,329,4.0,8.0,79,0.00,,,0.11,,2013-02-08 23:11:00,
2013-02-08 19:22:00,33.0,28.0,30.24,NW,326,2.0,4.0,80,0.00,,,0.11,,2013-02-09 00:22:00,
2013-02-08 19:32:00,33.0,28.0,30.25,NNW,331,2.0,6.0,81,0.00,,,0.11,,2013-02-09 00:32:00,
2013-02-08 19:42:00,33.0,28.0,30.25,NNW,331,2.0,6.0,81,0.00,,,0.11,,2013-02-09 00:42:00,
2013-02-08 19:52:00,33.0,27.0,30.25,NNW,341,1.0,6.0,79,0.00,,,0.11,,2013-02-09 00:52:00,
2013-02-08 20:01:00,33.0,27.0,30.26,NNW,328,2.0,7.0,77,0.00,,,0.11,,2013-02-09 01:01:00,
2013-02-08 20:11:00,33.0,27.0,30.26,NNW,328,2.0,7.0,77,0.00,,,0.11,,2013-02-09 01:11:00,
2013-02-08 20:22:00,33.0,27.0,30.26,NNW,328,2.0,7.0,77,0.00,,,0.11,,2013-02-09 01:22:00,
2013-02-08 20:32:00,32.0,26.0,30.28,NW,323,3.0,7.0,78,0.00,,,0.11,,2013-02-09 01:32:00,
2013-02-08 20:42:00,32.0,26.0,30.28,NW,323,3.0,7.0,78,0.00,,,0.11,,2013-02-09 01:42:00,
2013-02-08 20:52:00,32.0,26.0,30.28,NW,323,3.0,7.0,78,0.00,,,0.11,,2013-02-09 01:52:00,
2013-02-08 21:01:00,32.0,26.0,30.28,NNW,343,3.0,7.0,77,0.00,,,0.11,,2013-02-09 02:01:00,
2013-02-08 21:11:00,32.0,26.0,30.28,NNW,343,3.0,7.0,77,0.00,,,0.11,,2013-02-09 02:11:00,
2013-02-08 21:22:00,32.0,26.0,30.28,NNW,343,3.0,7.0,77,0.00,,,0.11,,2013-02-09 02:22:00,
2013-02-08 21:32:00,32.0,26.0,30.29,North,352,3.0,7.0,79,0.00,,,0.11,,2013-02-09 02:32:00,
2013-02-08 21:42:00,32.0,26.0,30.29,North,352,3.0,7.0,79,0.00,,,0.11,,2013-02-09 02:42:00,
2013-02-08 21:53:00,32.0,26.0,30.29,NNW,331,3.0,5.0,78,0.00,,,0.11,,2013-02-09 02:53:00,
2013-02-08 22:02:00,32.0,26.0,30.30,NNW,327,1.0,6.0,78,0.00,,,0.11,,2013-02-09 03:02:00,
2013-02-08 22:11:00,32.0,26.0,30.30,NNW,327,1.0,6.0,78,0.00,,,0.11,,2013-02-09 03:11:00,
2013-02-08 22:22:00,31.0,25.0,30.30,North,357,3.0,5.0,78,0.00,,,0.11,,2013-02-09 03:22:00,
2013-02-08 22:32:00,31.0,25.0,30.30,NW,322,1.0,6.0,78,0.00,,,0.11,,2013-02-09 03:32:00,
2013-02-08 22:42:00,31.0,25.0,30.30,NW,322,1.0,6.0,78,0.00,,,0.11,,2013-02-09 03:42:00,
2013-02-08 22:53:00,31.0,25.0,30.30,NW,322,1.0,6.0,78,0.00,,,0.11,,2013-02-09 03:53:00,
2013-02-08 23:03:00,31.0,25.0,30.30,NW,322,1.0,6.0,78,0.00,,,0.11,,2013-02-09 04:03:00,
2013-02-08 23:12:00,31.0,25.0,30.30,NW,322,1.0,6.0,78,0.00,,,0.11,,2013-02-09 04:12:00,
2013-02-08 23:52:00,31.0,24.0,30.30,NNW,341,1.0,4.0,76,0.00,,,0.11,,2013-02-09 04:52:00,